Portada
METAR-TAF:

METAR-TAF

Aeropuertos :

La Gomera, España

Aeropuerto de La Gomera

latitud: 28-01-47N, longitud: 017-12-53W, altitud: 218 m

Observación

El informe se hizo hace 11 minutos, a las 17:30 UTC
Viento 7 kt del suroeste
Temperatura 22°C
Humedad 73%
Presión 1020 hPa
Visibilidad 10 km o más
Nubes dispersas a una altura de 2500 ft

METAR: GCGM 271730Z 23007KT 9999 SCT025 22/17 Q1020 RMK R09/23005KT 180V310 ARP/24007KT 190V290

Hora: 17:41 (17:41 UTC)

Pronóstico

El informe se hizo hace 3 horas y 41 minutos, a las 14:00 UTC
Pronóstico válido del 27 a las 15 UTC al 28 a las 15 UTC
Viento 8 kt del suroeste
Visibilidad 10 km o más
Nubes dispersas a una altura de 3000 ft

TAF: GCGM 271400Z 2715/2815 23008KT 9999 SCT030 TX25/2814Z TN18/2807Z

Observaciones y pronósticos meteorológicos de más de 4000 aeropuertos (mensajes METAR y TAF).

Los puntos amarillos y rojos representan las estaciones disponibles.

Ponga el ratón en el punto deseado para ver el nombre de la estación.

Haga clic para ver las observaciones y los pronósticos meteorológicos.

Para cambiar el mapa : haga clic en los botones verdes con una cruz de color negro para hacer un zoom, en el botón verde con un guión para alejar o en las flechas verdes para mapas adyacentes.


METAR-TAF: